createdAt,value
2017-07-30T00:00:20.635Z,19.30
2017-07-30T00:02:49.592Z,19.30
2017-07-30T00:05:16.591Z,19.30
2017-07-30T00:07:43.379Z,19.30
2017-07-30T00:10:10.549Z,19.20
2017-07-30T00:12:37.410Z,19.20
2017-07-30T00:15:04.405Z,19.20
2017-07-30T00:17:31.700Z,19.20
2017-07-30T00:19:58.911Z,19.20
2017-07-30T00:22:25.183Z,19.20
2017-07-30T00:24:53.174Z,19.10
2017-07-30T00:27:19.463Z,19.10
2017-07-30T00:29:45.740Z,19.10
2017-07-30T00:32:12.627Z,19.10
2017-07-30T00:34:39.552Z,19.00
2017-07-30T00:37:06.412Z,19.00
2017-07-30T00:39:32.664Z,19.00
2017-07-30T00:41:58.936Z,19.00
2017-07-30T00:44:25.205Z,19.00
2017-07-30T00:46:51.468Z,19.00
2017-07-30T00:49:17.761Z,19.00
2017-07-30T00:51:44.031Z,19.00
2017-07-30T00:54:10.306Z,18.90
2017-07-30T00:56:36.552Z,18.90
2017-07-30T00:59:02.808Z,18.90
2017-07-30T01:01:29.810Z,18.90
2017-07-30T01:03:56.079Z,18.80
2017-07-30T01:06:23.722Z,18.80
2017-07-30T01:08:50.938Z,18.80
2017-07-30T01:11:18.146Z,18.80
2017-07-30T01:13:44.427Z,18.80
2017-07-30T01:16:10.698Z,18.80
2017-07-30T01:18:37.741Z,18.70
2017-07-30T01:21:04.161Z,18.80
2017-07-30T01:23:30.967Z,18.80
2017-07-30T01:25:57.227Z,18.70
2017-07-30T01:28:23.517Z,18.70
2017-07-30T01:30:49.800Z,18.70
2017-07-30T01:33:16.072Z,18.70
2017-07-30T01:35:43.330Z,18.70
2017-07-30T01:38:09.638Z,18.70
2017-07-30T01:40:36.865Z,18.70
2017-07-30T01:43:03.161Z,18.70
2017-07-30T01:45:30.198Z,18.70
2017-07-30T01:47:56.517Z,18.70
2017-07-30T01:50:23.436Z,18.60
2017-07-30T01:52:49.765Z,18.60
2017-07-30T01:55:16.671Z,18.60
2017-07-30T01:57:43.439Z,18.60
2017-07-30T02:00:10.093Z,18.60
2017-07-30T02:02:36.460Z,18.60
2017-07-30T02:05:02.720Z,18.60
2017-07-30T02:07:29.608Z,18.60
2017-07-30T02:09:56.854Z,18.60
2017-07-30T02:12:24.945Z,18.60
2017-07-30T02:14:52.244Z,18.60
2017-07-30T02:17:18.510Z,18.60
2017-07-30T02:19:44.794Z,18.50
2017-07-30T02:22:12.088Z,18.40
2017-07-30T02:24:39.252Z,18.40
2017-07-30T02:27:05.506Z,18.40
2017-07-30T02:29:33.433Z,18.40
2017-07-30T02:31:59.713Z,18.30
2017-07-30T02:34:26.293Z,18.20
2017-07-30T02:36:52.564Z,18.20
2017-07-30T02:39:18.836Z,18.10
2017-07-30T02:41:45.106Z,18.10
2017-07-30T02:44:13.024Z,18.10
2017-07-30T02:46:39.307Z,18.10
2017-07-30T02:49:06.224Z,18.10
2017-07-30T02:51:32.499Z,18.10
2017-07-30T02:53:58.876Z,18.10
2017-07-30T02:56:25.152Z,18.10
2017-07-30T02:58:52.103Z,18.10
2017-07-30T03:01:19.030Z,18.10
2017-07-30T03:03:45.828Z,18.10
2017-07-30T03:06:12.112Z,18.20
2017-07-30T03:08:38.397Z,18.20
2017-07-30T03:11:05.130Z,18.20
2017-07-30T03:13:31.421Z,18.10
2017-07-30T03:15:57.726Z,18.20
2017-07-30T03:18:24.635Z,18.20
2017-07-30T03:20:51.321Z,18.10
2017-07-30T03:23:17.592Z,18.10
2017-07-30T03:25:44.441Z,18.10
2017-07-30T03:28:10.795Z,18.00
2017-07-30T03:30:37.064Z,18.00
2017-07-30T03:33:03.498Z,18.00
2017-07-30T03:35:29.822Z,18.00
2017-07-30T03:37:56.654Z,18.00
2017-07-30T03:40:22.916Z,17.90
2017-07-30T03:42:49.435Z,18.00
2017-07-30T03:45:15.827Z,17.90
2017-07-30T03:47:42.206Z,18.00
2017-07-30T03:50:08.803Z,17.90
2017-07-30T03:52:35.080Z,17.90
2017-07-30T03:55:01.709Z,17.90
2017-07-30T03:57:28.618Z,18.00
2017-07-30T03:59:55.220Z,18.00
2017-07-30T04:02:21.496Z,18.00
2017-07-30T04:04:48.699Z,18.00
2017-07-30T04:07:14.986Z,18.00
2017-07-30T04:09:41.785Z,17.90
2017-07-30T04:12:08.077Z,18.00
2017-07-30T04:14:35.122Z,17.90
2017-07-30T04:17:01.370Z,17.90
2017-07-30T04:19:29.153Z,17.90
2017-07-30T04:21:56.148Z,18.10
2017-07-30T04:24:22.783Z,18.30
2017-07-30T04:26:49.753Z,18.60
2017-07-30T04:29:16.301Z,18.80
2017-07-30T04:31:42.515Z,19.00
2017-07-30T04:34:09.809Z,19.30
2017-07-30T04:36:36.082Z,19.40
2017-07-30T04:39:02.387Z,19.70
2017-07-30T04:41:29.148Z,19.90
2017-07-30T04:43:55.873Z,20.20
2017-07-30T04:46:22.737Z,20.40
2017-07-30T04:48:49.214Z,20.60
2017-07-30T04:51:16.251Z,20.80
2017-07-30T04:53:42.534Z,21.00
2017-07-30T04:56:09.116Z,21.20
2017-07-30T04:58:36.105Z,21.50
2017-07-30T05:01:02.569Z,21.70
2017-07-30T05:03:29.522Z,21.90
2017-07-30T05:05:56.754Z,22.20
2017-07-30T05:08:23.752Z,22.20
2017-07-30T05:10:50.048Z,22.30
2017-07-30T05:13:17.154Z,22.80
2017-07-30T05:15:44.507Z,22.80
2017-07-30T05:18:11.293Z,23.00
2017-07-30T05:20:38.307Z,23.20
2017-07-30T05:23:04.600Z,23.20
2017-07-30T05:25:31.445Z,23.20
2017-07-30T05:27:57.969Z,23.10
2017-07-30T05:30:26.010Z,23.00
2017-07-30T05:32:53.777Z,22.70
2017-07-30T05:35:20.973Z,22.80
2017-07-30T05:37:47.306Z,22.70
2017-07-30T05:40:14.528Z,22.80
2017-07-30T05:42:41.268Z,22.90
2017-07-30T05:45:07.521Z,23.10
2017-07-30T05:47:34.603Z,23.20
2017-07-30T05:50:02.473Z,23.30
2017-07-30T05:52:29.089Z,23.50
2017-07-30T05:54:56.351Z,23.90
2017-07-30T05:57:22.798Z,23.90
2017-07-30T05:59:49.310Z,24.30
2017-07-30T06:02:15.578Z,24.50
2017-07-30T06:04:42.790Z,24.90
2017-07-30T06:07:10.049Z,24.80
2017-07-30T06:09:36.344Z,24.70
2017-07-30T06:12:03.582Z,24.40
2017-07-30T06:14:29.817Z,24.40
2017-07-30T06:16:56.646Z,24.30
2017-07-30T06:19:23.436Z,24.40
2017-07-30T06:21:50.712Z,24.40
2017-07-30T06:24:16.985Z,24.20
2017-07-30T06:26:43.238Z,23.90
2017-07-30T06:29:12.231Z,23.70
2017-07-30T06:31:38.464Z,23.50
2017-07-30T06:34:05.343Z,23.30
2017-07-30T06:36:33.410Z,22.80
2017-07-30T06:39:00.400Z,22.50
2017-07-30T06:41:26.669Z,22.50
2017-07-30T06:43:52.926Z,22.40
2017-07-30T06:46:19.276Z,22.30
2017-07-30T06:48:45.541Z,22.20
2017-07-30T06:51:12.794Z,22.10
2017-07-30T06:53:40.055Z,22.10
2017-07-30T06:56:06.337Z,22.10
2017-07-30T06:58:32.976Z,22.10
2017-07-30T07:01:01.415Z,22.20
2017-07-30T07:03:27.706Z,22.20
2017-07-30T07:05:54.003Z,22.30
2017-07-30T07:08:20.298Z,22.40
2017-07-30T07:10:46.632Z,22.70
2017-07-30T07:13:13.272Z,22.80
2017-07-30T07:15:40.716Z,23.00
2017-07-30T07:18:07.851Z,23.10
2017-07-30T07:20:34.851Z,23.10
2017-07-30T07:23:01.733Z,23.20
2017-07-30T07:25:28.651Z,23.30
2017-07-30T07:27:55.882Z,23.50
2017-07-30T07:30:22.877Z,23.90
2017-07-30T07:32:49.863Z,23.90
2017-07-30T07:35:17.684Z,24.50
2017-07-30T07:37:43.987Z,24.50
2017-07-30T07:40:10.325Z,24.70
2017-07-30T07:42:38.119Z,24.90
2017-07-30T07:45:04.407Z,25.30
2017-07-30T07:47:30.723Z,25.40
2017-07-30T07:49:59.637Z,25.60
2017-07-30T07:52:26.381Z,25.60
2017-07-30T07:54:53.482Z,25.70
2017-07-30T07:57:27.569Z,25.70
2017-07-30T07:59:54.886Z,25.80
2017-07-30T08:02:21.390Z,25.90
2017-07-30T08:04:49.043Z,25.70
2017-07-30T08:07:15.378Z,25.60
2017-07-30T08:09:42.002Z,25.60
2017-07-30T08:12:09.018Z,25.50
2017-07-30T08:14:35.376Z,25.50
2017-07-30T08:17:01.990Z,25.60
2017-07-30T08:19:28.857Z,25.50
2017-07-30T08:21:55.155Z,25.50
2017-07-30T08:24:21.497Z,25.60
2017-07-30T08:26:48.879Z,25.70
2017-07-30T08:29:16.569Z,25.90
2017-07-30T08:31:43.596Z,26.00
2017-07-30T08:34:10.747Z,26.00
2017-07-30T08:36:36.981Z,25.90
2017-07-30T08:39:04.038Z,26.00
2017-07-30T08:41:30.884Z,26.00
2017-07-30T08:43:57.183Z,26.00
2017-07-30T08:46:23.491Z,26.10
2017-07-30T08:48:50.753Z,26.10
2017-07-30T08:51:17.583Z,26.10
2017-07-30T08:53:44.639Z,26.30
2017-07-30T08:56:11.544Z,26.20
2017-07-30T08:58:37.901Z,26.40
2017-07-30T09:01:04.845Z,26.60
2017-07-30T09:03:31.414Z,26.70
2017-07-30T09:05:58.284Z,26.90
2017-07-30T09:08:24.617Z,27.10
2017-07-30T09:10:51.142Z,27.30
2017-07-30T09:13:19.898Z,27.60
2017-07-30T09:15:46.266Z,27.50
2017-07-30T09:18:13.924Z,28.00
2017-07-30T09:20:40.222Z,28.00
2017-07-30T09:23:06.475Z,28.10
2017-07-30T09:25:33.737Z,28.10
2017-07-30T09:27:59.990Z,28.10
2017-07-30T09:30:26.788Z,28.30
2017-07-30T09:32:53.799Z,28.40
2017-07-30T09:35:20.067Z,28.40
2017-07-30T09:37:47.569Z,28.70
2017-07-30T09:40:14.210Z,28.70
2017-07-30T09:42:41.273Z,29.00
2017-07-30T09:45:07.558Z,29.00
2017-07-30T09:47:34.811Z,29.00
2017-07-30T09:50:01.121Z,28.80
2017-07-30T09:52:28.132Z,28.80
2017-07-30T09:54:55.363Z,28.70
2017-07-30T09:57:21.654Z,28.70
2017-07-30T09:59:49.150Z,28.60
2017-07-30T10:02:15.616Z,28.60
2017-07-30T10:04:41.916Z,28.60
2017-07-30T10:07:08.156Z,28.70
2017-07-30T10:09:35.446Z,28.90
2017-07-30T10:12:02.618Z,29.20
2017-07-30T10:14:29.632Z,29.10
2017-07-30T10:16:56.436Z,29.30
2017-07-30T10:19:23.941Z,29.40
2017-07-30T10:21:51.183Z,29.50
2017-07-30T10:24:18.202Z,29.60
2017-07-30T10:26:45.769Z,29.80
2017-07-30T10:29:13.017Z,29.80
2017-07-30T10:31:40.076Z,29.70
2017-07-30T10:34:07.369Z,29.70
2017-07-30T10:36:33.936Z,29.60
2017-07-30T10:39:01.024Z,29.70
2017-07-30T10:41:27.600Z,29.70
2017-07-30T10:43:54.882Z,29.60
2017-07-30T10:46:22.462Z,29.80
2017-07-30T10:48:48.726Z,29.80
2017-07-30T10:51:15.911Z,30.20
2017-07-30T10:53:42.733Z,30.20
2017-07-30T10:56:09.031Z,30.40
2017-07-30T10:58:36.340Z,30.20
2017-07-30T11:01:03.421Z,30.10
2017-07-30T11:03:29.676Z,30.00
2017-07-30T11:05:57.587Z,30.00
2017-07-30T11:08:24.446Z,30.00
2017-07-30T11:10:50.866Z,30.10
2017-07-30T11:13:18.731Z,30.10
2017-07-30T11:15:45.099Z,30.00
2017-07-30T11:18:12.716Z,29.90
2017-07-30T11:20:39.960Z,29.90
2017-07-30T11:23:06.203Z,30.00
2017-07-30T11:25:32.615Z,30.10
2017-07-30T11:27:59.035Z,30.00
2017-07-30T11:30:25.294Z,30.00
2017-07-30T11:32:52.151Z,30.00
2017-07-30T11:35:18.473Z,30.20
2017-07-30T11:37:45.660Z,30.40
2017-07-30T11:40:12.697Z,30.50
2017-07-30T11:42:39.009Z,30.50
2017-07-30T11:45:05.948Z,30.60
2017-07-30T11:47:32.207Z,30.60
2017-07-30T11:49:59.215Z,30.90
2017-07-30T11:52:25.502Z,30.80
2017-07-30T11:54:51.999Z,31.10
2017-07-30T11:57:19.784Z,31.10
2017-07-30T11:59:47.289Z,31.30
2017-07-30T12:02:14.187Z,31.30
2017-07-30T12:04:41.178Z,31.50
2017-07-30T12:07:07.430Z,31.50
2017-07-30T12:09:33.684Z,31.70
2017-07-30T12:12:02.111Z,32.00
2017-07-30T12:14:28.447Z,32.00
2017-07-30T12:16:55.773Z,32.10
2017-07-30T12:19:22.044Z,32.10
2017-07-30T12:21:48.876Z,32.10
2017-07-30T12:24:16.148Z,32.20
2017-07-30T12:26:42.496Z,32.30
2017-07-30T12:29:08.788Z,32.30
2017-07-30T12:31:36.103Z,32.40
2017-07-30T12:34:02.337Z,32.60
2017-07-30T12:36:28.628Z,32.30
2017-07-30T12:38:55.121Z,32.40
2017-07-30T12:41:21.470Z,32.40
2017-07-30T12:43:48.441Z,32.40
2017-07-30T12:46:15.730Z,32.30
2017-07-30T12:48:42.001Z,32.30
2017-07-30T12:51:08.299Z,32.30
2017-07-30T12:53:35.658Z,32.40
2017-07-30T12:56:01.925Z,32.50
2017-07-30T12:58:29.174Z,32.50
2017-07-30T13:00:55.466Z,32.20
2017-07-30T13:03:22.383Z,32.10
2017-07-30T13:05:49.426Z,32.20
2017-07-30T13:08:17.420Z,32.40
2017-07-30T13:10:44.710Z,32.30
2017-07-30T13:13:11.030Z,32.50
2017-07-30T13:15:37.558Z,32.50
2017-07-30T13:18:04.840Z,32.20
2017-07-30T13:20:31.118Z,32.20
2017-07-30T13:22:58.074Z,32.50
2017-07-30T13:25:24.798Z,32.50
2017-07-30T13:27:51.106Z,32.40
2017-07-30T13:30:18.406Z,32.40
2017-07-30T13:32:45.298Z,32.30
2017-07-30T13:35:13.252Z,32.10
2017-07-30T13:37:41.331Z,32.10
2017-07-30T13:40:07.652Z,32.10
2017-07-30T13:42:33.953Z,32.10
2017-07-30T13:45:01.337Z,32.00
2017-07-30T13:47:27.913Z,32.10
2017-07-30T13:49:54.804Z,32.40
2017-07-30T13:52:21.719Z,32.40
2017-07-30T13:54:48.240Z,32.40
2017-07-30T13:57:15.349Z,32.40
2017-07-30T13:59:42.555Z,32.70
2017-07-30T14:02:09.173Z,32.70
2017-07-30T14:04:36.427Z,32.70
2017-07-30T14:07:02.721Z,32.60
2017-07-30T14:09:29.640Z,32.70
2017-07-30T14:11:56.951Z,32.80
2017-07-30T14:14:23.192Z,32.80
2017-07-30T14:16:49.472Z,33.00
2017-07-30T14:19:15.732Z,33.10
2017-07-30T14:21:42.589Z,33.10
2017-07-30T14:24:08.936Z,33.00
2017-07-30T14:26:35.515Z,32.80
2017-07-30T14:29:02.538Z,32.70
2017-07-30T14:31:29.366Z,32.70
2017-07-30T14:33:56.247Z,32.70
2017-07-30T14:36:22.584Z,32.80
2017-07-30T14:38:49.762Z,33.00
2017-07-30T14:41:16.033Z,33.00
2017-07-30T14:43:42.888Z,32.80
2017-07-30T14:46:09.157Z,32.80
2017-07-30T14:48:36.431Z,32.90
2017-07-30T14:51:03.690Z,32.80
2017-07-30T14:53:30.374Z,32.60
2017-07-30T14:55:57.760Z,32.60
2017-07-30T14:58:24.494Z,32.60
2017-07-30T15:00:52.888Z,32.60
2017-07-30T15:03:19.187Z,32.60
2017-07-30T15:05:46.686Z,32.70
2017-07-30T15:08:13.215Z,32.60
2017-07-30T15:10:40.861Z,32.70
2017-07-30T15:13:07.467Z,32.70
2017-07-30T15:15:34.156Z,32.60
2017-07-30T15:18:01.439Z,32.60
2017-07-30T15:20:27.699Z,32.50
2017-07-30T15:22:55.273Z,32.50
2017-07-30T15:25:22.090Z,32.50
2017-07-30T15:27:49.606Z,32.40
2017-07-30T15:30:15.948Z,32.30
2017-07-30T15:32:42.845Z,32.40
2017-07-30T15:35:09.123Z,32.10
2017-07-30T15:37:36.430Z,32.10
2017-07-30T15:40:03.723Z,32.10
2017-07-30T15:42:30.065Z,31.90
2017-07-30T15:44:56.934Z,31.80
2017-07-30T15:47:24.502Z,31.50
2017-07-30T15:49:51.533Z,31.40
2017-07-30T15:52:18.507Z,31.40
2017-07-30T15:54:45.712Z,31.50
2017-07-30T15:57:12.090Z,31.50
2017-07-30T15:59:38.874Z,31.20
2017-07-30T16:02:05.127Z,31.20
2017-07-30T16:04:32.351Z,31.30
2017-07-30T16:06:59.178Z,31.40
2017-07-30T16:09:25.900Z,31.30
2017-07-30T16:11:53.399Z,31.30
2017-07-30T16:14:20.621Z,31.40
2017-07-30T16:16:47.528Z,31.30
2017-07-30T16:19:13.883Z,31.30
2017-07-30T16:21:40.571Z,31.30
2017-07-30T16:24:07.626Z,31.00
2017-07-30T16:26:34.512Z,31.00
2017-07-30T16:29:00.848Z,31.00
2017-07-30T16:31:27.146Z,31.00
2017-07-30T16:33:54.192Z,30.90
2017-07-30T16:36:21.270Z,30.90
2017-07-30T16:38:56.063Z,30.60
2017-07-30T16:41:23.089Z,30.60
2017-07-30T16:43:49.360Z,30.50
2017-07-30T16:46:16.205Z,30.50
2017-07-30T16:48:43.086Z,30.40
2017-07-30T16:51:09.576Z,30.20
2017-07-30T16:53:35.859Z,30.10
2017-07-30T16:56:02.214Z,30.00
2017-07-30T16:58:29.241Z,29.90
2017-07-30T17:00:55.560Z,29.80
2017-07-30T17:03:23.499Z,29.80
2017-07-30T17:05:50.268Z,29.70
2017-07-30T17:08:16.911Z,29.60
2017-07-30T17:10:43.990Z,29.30
2017-07-30T17:13:11.202Z,29.30
2017-07-30T17:15:37.487Z,29.20
2017-07-30T17:18:03.749Z,29.30
2017-07-30T17:20:30.531Z,29.10
2017-07-30T17:22:57.684Z,27.30
2017-07-30T17:25:24.566Z,27.30
2017-07-30T17:27:50.869Z,26.40
2017-07-30T17:30:17.928Z,25.60
2017-07-30T17:32:44.339Z,24.70
2017-07-30T17:35:11.932Z,22.80
2017-07-30T17:37:39.078Z,22.80
2017-07-30T17:40:06.492Z,20.20
2017-07-30T17:42:33.409Z,20.20
2017-07-30T17:44:59.765Z,19.50
2017-07-30T17:47:26.646Z,19.10
2017-07-30T17:49:53.519Z,18.70
2017-07-30T17:52:20.402Z,18.80
2017-07-30T17:54:47.411Z,19.00
2017-07-30T17:57:13.751Z,18.90
2017-07-30T17:59:40.550Z,19.20
2017-07-30T18:02:07.448Z,19.40
2017-07-30T18:04:33.772Z,19.50
2017-07-30T18:07:00.711Z,19.70
2017-07-30T18:09:27.253Z,19.90
2017-07-30T18:11:54.690Z,19.90
2017-07-30T18:14:21.081Z,20.10
2017-07-30T18:16:48.102Z,20.10
2017-07-30T18:19:14.405Z,20.10
2017-07-30T18:21:40.709Z,20.20
2017-07-30T18:24:06.981Z,20.50
2017-07-30T18:26:33.357Z,20.40
2017-07-30T18:28:59.664Z,20.50
2017-07-30T18:31:26.508Z,20.60
2017-07-30T18:33:54.517Z,20.70
2017-07-30T18:36:20.894Z,20.70
2017-07-30T18:38:47.209Z,20.80
2017-07-30T18:41:13.512Z,20.90
2017-07-30T18:43:40.770Z,21.00
2017-07-30T18:46:08.166Z,20.80
2017-07-30T18:48:34.478Z,20.70
2017-07-30T18:51:02.524Z,20.60
2017-07-30T18:53:28.919Z,20.60
2017-07-30T18:55:56.515Z,20.50
2017-07-30T18:58:23.932Z,20.50
2017-07-30T19:00:51.720Z,20.60
2017-07-30T19:03:19.233Z,20.60
2017-07-30T19:05:46.578Z,20.70
2017-07-30T19:08:13.471Z,20.80
2017-07-30T19:10:40.536Z,20.90
2017-07-30T19:13:07.397Z,20.80
2017-07-30T19:15:33.863Z,20.70
2017-07-30T19:18:00.690Z,20.50
2017-07-30T19:20:28.481Z,20.50
2017-07-30T19:22:55.831Z,20.40
2017-07-30T19:25:22.119Z,20.40
2017-07-30T19:27:48.982Z,20.40
2017-07-30T19:30:16.249Z,20.30
2017-07-30T19:32:43.267Z,20.20
2017-07-30T19:35:10.510Z,20.10
2017-07-30T19:37:36.828Z,20.20
2017-07-30T19:40:03.623Z,20.10
2017-07-30T19:42:29.939Z,20.10
2017-07-30T19:44:56.907Z,20.20
2017-07-30T19:47:23.178Z,20.10
2017-07-30T19:49:49.438Z,20.10
2017-07-30T19:52:16.259Z,20.20
2017-07-30T19:54:42.934Z,20.20
2017-07-30T19:57:09.946Z,20.40
2017-07-30T19:59:36.212Z,20.40
2017-07-30T20:02:02.603Z,20.30
2017-07-30T20:04:28.897Z,20.30
2017-07-30T20:06:55.635Z,20.20
2017-07-30T20:09:21.939Z,20.20
2017-07-30T20:11:49.224Z,20.40
2017-07-30T20:14:16.032Z,20.50
2017-07-30T20:16:43.597Z,20.40
2017-07-30T20:19:11.352Z,20.40
2017-07-30T20:21:37.604Z,20.40
2017-07-30T20:24:04.912Z,20.50
2017-07-30T20:26:31.680Z,20.40
2017-07-30T20:28:57.932Z,20.40
2017-07-30T20:31:24.544Z,20.40
2017-07-30T20:33:50.837Z,20.30
2017-07-30T20:36:18.052Z,20.20
2017-07-30T20:38:44.314Z,20.00
2017-07-30T20:41:10.568Z,20.10
2017-07-30T20:43:36.901Z,20.10
2017-07-30T20:46:03.826Z,20.20
2017-07-30T20:48:30.878Z,20.30
2017-07-30T20:50:58.179Z,20.30
2017-07-30T20:53:24.449Z,20.20
2017-07-30T20:55:50.715Z,20.20
2017-07-30T20:58:18.711Z,20.00
2017-07-30T21:00:45.017Z,20.00
2017-07-30T21:03:12.294Z,20.10
2017-07-30T21:05:38.547Z,20.20
2017-07-30T21:08:04.939Z,20.10
2017-07-30T21:10:31.835Z,20.10
2017-07-30T21:12:59.162Z,20.10
2017-07-30T21:15:26.154Z,20.20
2017-07-30T21:17:53.447Z,20.10
2017-07-30T21:20:20.663Z,20.00
2017-07-30T21:22:47.941Z,19.90
2017-07-30T21:25:14.289Z,19.90
2017-07-30T21:27:40.547Z,20.10
2017-07-30T21:30:07.362Z,20.20
2017-07-30T21:32:34.626Z,20.30
2017-07-30T21:35:01.894Z,20.10
2017-07-30T21:37:29.637Z,20.20
2017-07-30T21:39:56.748Z,20.40
2017-07-30T21:42:24.395Z,20.30
2017-07-30T21:44:50.677Z,20.30
2017-07-30T21:47:17.001Z,20.20
2017-07-30T21:49:43.776Z,20.10
2017-07-30T21:52:10.294Z,20.30
2017-07-30T21:54:37.236Z,20.30
2017-07-30T21:57:03.520Z,20.10
2017-07-30T21:59:29.777Z,20.00
2017-07-30T22:01:56.114Z,20.00
2017-07-30T22:04:22.975Z,20.00
2017-07-30T22:06:49.560Z,20.10
2017-07-30T22:09:16.837Z,20.00
2017-07-30T22:11:44.108Z,20.00
2017-07-30T22:23:58.368Z,20.10
2017-07-30T22:26:25.397Z,19.70
2017-07-30T22:28:51.658Z,19.70
2017-07-30T22:31:18.919Z,19.80
2017-07-30T22:33:45.396Z,19.80
2017-07-30T22:36:11.723Z,19.80
2017-07-30T22:38:38.910Z,19.80
2017-07-30T22:41:07.198Z,19.80
2017-07-30T22:43:34.206Z,19.80
2017-07-30T22:46:00.695Z,20.00
2017-07-30T22:48:26.948Z,19.90
2017-07-30T22:50:53.206Z,19.80
2017-07-30T22:53:19.458Z,19.80
2017-07-30T22:55:47.081Z,20.00
2017-07-30T22:58:13.930Z,20.00
2017-07-30T23:00:40.735Z,20.00
2017-07-30T23:03:07.773Z,20.00
2017-07-30T23:05:34.752Z,20.10
2017-07-30T23:08:01.682Z,20.10
2017-07-30T23:10:28.843Z,20.10
2017-07-30T23:12:55.666Z,20.10
2017-07-30T23:15:21.956Z,20.10
2017-07-30T23:17:48.955Z,20.10
2017-07-30T23:20:15.220Z,20.00
2017-07-30T23:22:42.067Z,20.00
2017-07-30T23:25:10.169Z,20.00
2017-07-30T23:27:38.649Z,20.00
2017-07-30T23:30:04.929Z,20.00
2017-07-30T23:32:32.184Z,20.00
2017-07-30T23:34:58.469Z,20.00
2017-07-30T23:37:25.366Z,20.00
2017-07-30T23:39:51.638Z,19.90
2017-07-30T23:42:17.992Z,19.80
2017-07-30T23:44:44.869Z,19.80
2017-07-30T23:47:11.858Z,19.70
2017-07-30T23:49:38.336Z,19.60
2017-07-30T23:52:04.620Z,19.70
2017-07-30T23:54:31.914Z,19.80
2017-07-30T23:56:58.831Z,19.70
2017-07-30T23:59:25.624Z,19.70
